createdAt,value
2023-02-22T00:01:35.950Z,10.77
2023-02-22T00:04:07.052Z,9.25
2023-02-22T00:06:34.162Z,8.90
2023-02-22T00:09:02.537Z,7.18
2023-02-22T00:11:31.464Z,9.10
2023-02-22T00:13:58.394Z,8.93
2023-02-22T00:16:26.502Z,8.60
2023-02-22T00:18:54.273Z,9.90
2023-02-22T00:21:21.652Z,11.30
2023-02-22T00:23:49.569Z,9.88
2023-02-22T00:26:21.958Z,9.95
2023-02-22T00:28:53.649Z,9.32
2023-02-22T00:31:21.691Z,10.75
2023-02-22T00:33:48.668Z,8.98
2023-02-22T00:36:15.776Z,7.13
2023-02-22T00:38:42.744Z,7.78
2023-02-22T00:41:10.319Z,7.13
2023-02-22T00:43:37.185Z,9.05
2023-02-22T00:46:04.633Z,9.07
2023-02-22T00:48:31.421Z,11.35
2023-02-22T00:50:58.165Z,7.13
2023-02-22T00:53:26.115Z,6.93
2023-02-22T00:55:53.750Z,8.50
2023-02-22T00:58:21.185Z,6.75
2023-02-22T01:00:49.286Z,7.40
2023-02-22T01:03:19.132Z,9.63
2023-02-22T01:05:47.031Z,9.88
2023-02-22T01:08:17.869Z,7.03
2023-02-22T01:10:45.236Z,5.70
2023-02-22T01:13:13.176Z,7.50
2023-02-22T01:15:44.777Z,7.15
2023-02-22T01:18:12.935Z,6.57
2023-02-22T01:20:39.915Z,6.15
2023-02-22T01:23:08.146Z,6.03
2023-02-22T01:29:23.432Z,6.90
2023-02-22T01:31:55.591Z,6.28
2023-02-22T01:34:24.205Z,5.88
2023-02-22T01:36:50.934Z,6.95
2023-02-22T01:39:18.166Z,6.25
2023-02-22T01:41:45.770Z,6.57
2023-02-22T01:44:29.208Z,7.82
2023-02-22T01:46:58.081Z,8.98
2023-02-22T01:49:29.619Z,7.00
2023-02-22T01:51:58.882Z,6.90
2023-02-22T01:54:32.254Z,6.22
2023-02-22T01:57:07.505Z,6.18
2023-02-22T01:59:37.851Z,6.43
2023-02-22T02:02:05.384Z,6.53
2023-02-22T02:04:33.472Z,8.13
2023-02-22T02:07:04.119Z,8.68
2023-02-22T02:09:43.565Z,7.57
2023-02-22T02:12:12.529Z,6.88
2023-02-22T02:14:41.699Z,5.75
2023-02-22T02:17:11.746Z,7.75
2023-02-22T02:20:13.170Z,9.82
2023-02-22T02:23:02.875Z,6.40
2023-02-22T02:25:41.674Z,6.97
2023-02-22T02:28:35.163Z,7.65
2023-02-22T02:31:31.054Z,6.47
2023-02-22T02:34:21.882Z,8.50
2023-02-22T02:36:57.351Z,7.18
2023-02-22T02:39:30.786Z,7.38
2023-02-22T02:42:00.749Z,5.20
2023-02-22T02:44:48.738Z,7.35
2023-02-22T02:47:22.106Z,7.15
2023-02-22T02:50:01.014Z,7.35
2023-02-22T02:52:29.156Z,7.63
2023-02-22T02:54:57.169Z,7.80
2023-02-22T02:57:24.728Z,9.15
2023-02-22T02:59:51.621Z,11.27
2023-02-22T03:02:30.074Z,8.23
2023-02-22T03:05:07.601Z,8.80
2023-02-22T03:07:52.440Z,9.60
2023-02-22T03:12:58.590Z,8.55
2023-02-22T03:15:40.569Z,13.35
2023-02-22T03:18:22.880Z,7.88
2023-02-22T03:21:10.393Z,8.07
2023-02-22T03:24:02.900Z,9.75
2023-02-22T03:26:41.467Z,8.38
2023-02-22T03:29:11.318Z,9.05
2023-02-22T03:31:48.625Z,7.75
2023-02-22T03:34:25.838Z,8.65
2023-02-22T03:37:03.927Z,8.95
2023-02-22T03:39:32.368Z,7.70
2023-02-22T03:42:08.813Z,9.02
2023-02-22T03:44:40.230Z,10.32
2023-02-22T03:47:12.897Z,8.80
2023-02-22T03:49:51.422Z,9.07
2023-02-22T03:52:19.250Z,11.05
2023-02-22T03:54:45.990Z,8.23
2023-02-22T03:57:20.313Z,8.80
2023-02-22T03:59:47.548Z,11.70
2023-02-22T04:02:14.265Z,9.55
2023-02-22T04:04:41.047Z,7.20
2023-02-22T04:07:07.780Z,7.88
2023-02-22T04:09:34.459Z,10.65
2023-02-22T04:12:01.182Z,9.63
2023-02-22T04:14:29.547Z,9.10
2023-02-22T04:16:56.471Z,8.75
2023-02-22T04:19:23.157Z,7.75
2023-02-22T04:21:49.828Z,8.73
2023-02-22T04:24:16.540Z,7.90
2023-02-22T04:26:43.360Z,8.05
2023-02-22T04:29:10.258Z,7.70
2023-02-22T04:31:37.117Z,7.35
2023-02-22T04:34:04.193Z,7.50
2023-02-22T04:36:34.461Z,10.45
2023-02-22T04:39:01.820Z,9.90
2023-02-22T04:41:28.622Z,8.65
2023-02-22T04:43:55.347Z,7.13
2023-02-22T04:46:22.087Z,10.60
2023-02-22T04:48:49.180Z,7.00
2023-02-22T04:51:16.543Z,8.73
2023-02-22T04:53:43.332Z,10.13
2023-02-22T04:56:10.055Z,10.18
2023-02-22T04:58:36.840Z,10.80
2023-02-22T05:01:04.044Z,9.55
2023-02-22T05:03:30.853Z,8.27
2023-02-22T05:05:57.589Z,10.50
2023-02-22T05:08:24.277Z,6.85
2023-02-22T05:10:50.994Z,9.95
2023-02-22T05:13:17.673Z,8.82
2023-02-22T05:15:44.403Z,9.63
2023-02-22T05:18:11.083Z,10.05
2023-02-22T05:20:37.895Z,11.25
2023-02-22T05:23:05.611Z,11.23
2023-02-22T05:25:33.610Z,9.65
2023-02-22T05:28:10.661Z,10.40
2023-02-22T05:30:41.112Z,8.85
2023-02-22T05:33:09.092Z,7.38
2023-02-22T05:35:37.128Z,9.50
2023-02-22T05:38:04.752Z,10.93
2023-02-22T05:40:32.069Z,9.02
2023-02-22T05:43:00.700Z,15.02
2023-02-22T05:45:28.528Z,12.40
2023-02-22T05:47:55.690Z,10.95
2023-02-22T05:50:22.906Z,11.07
2023-02-22T05:52:49.745Z,12.77
2023-02-22T05:55:19.066Z,11.65
2023-02-22T05:57:45.905Z,8.95
2023-02-22T06:00:25.102Z,10.85
2023-02-22T06:03:06.485Z,8.18
2023-02-22T06:05:33.267Z,10.75
2023-02-22T06:08:00.674Z,8.38
2023-02-22T06:10:27.914Z,8.25
2023-02-22T06:12:55.120Z,10.63
2023-02-22T06:15:24.034Z,12.70
2023-02-22T06:17:51.982Z,11.05
2023-02-22T06:20:21.451Z,13.98
2023-02-22T06:22:49.503Z,11.98
2023-02-22T06:25:19.331Z,11.63
2023-02-22T06:27:46.101Z,11.55
2023-02-22T06:30:14.001Z,12.35
2023-02-22T06:32:40.726Z,10.98
2023-02-22T06:35:08.731Z,9.32
2023-02-22T06:37:36.188Z,11.98
2023-02-22T06:40:05.687Z,11.25
2023-02-22T06:42:32.952Z,11.27
2023-02-22T06:44:59.957Z,11.88
2023-02-22T06:47:26.707Z,14.88
2023-02-22T06:49:54.980Z,10.75
2023-02-22T06:52:22.744Z,12.40
2023-02-22T06:54:50.170Z,12.02
2023-02-22T06:57:17.600Z,11.70
2023-02-22T06:59:44.516Z,14.48
2023-02-22T07:02:14.844Z,12.88
2023-02-22T07:04:43.415Z,10.88
2023-02-22T07:07:10.811Z,13.32
2023-02-22T07:09:37.880Z,11.20
2023-02-22T07:12:04.648Z,12.55
2023-02-22T07:14:31.508Z,17.15
2023-02-22T07:16:58.222Z,13.07
2023-02-22T07:19:25.150Z,14.57
2023-02-22T07:21:59.349Z,21.90
2023-02-22T07:24:28.519Z,18.02
2023-02-22T07:26:55.488Z,21.92
2023-02-22T07:29:25.125Z,19.88
2023-02-22T07:31:51.951Z,21.80
2023-02-22T07:34:18.765Z,20.73
2023-02-22T07:36:45.454Z,24.33
2023-02-22T07:39:12.227Z,22.77
2023-02-22T07:41:38.904Z,22.77
2023-02-22T07:44:05.782Z,23.23
2023-02-22T07:46:32.555Z,20.92
2023-02-22T07:48:59.290Z,21.60
2023-02-22T07:51:27.052Z,25.67
2023-02-22T07:53:53.835Z,40.40
2023-02-22T07:56:20.667Z,58.45
2023-02-22T07:58:47.643Z,45.95
2023-02-22T08:01:14.392Z,25.92
2023-02-22T08:03:41.353Z,23.67
2023-02-22T08:06:08.674Z,23.95
2023-02-22T08:08:35.352Z,22.17
2023-02-22T08:11:02.471Z,19.40
2023-02-22T08:13:29.324Z,20.30
2023-02-22T08:15:56.186Z,22.40
2023-02-22T08:18:24.135Z,20.90
2023-02-22T08:20:52.297Z,23.30
2023-02-22T08:23:21.171Z,23.58
2023-02-22T08:25:48.080Z,23.20
2023-02-22T08:28:17.820Z,19.70
2023-02-22T08:30:44.557Z,21.35
2023-02-22T08:33:19.130Z,18.77
2023-02-22T08:35:49.517Z,17.95
2023-02-22T08:38:23.553Z,17.45
2023-02-22T08:40:50.586Z,16.33
2023-02-22T08:43:19.052Z,16.40
2023-02-22T08:45:46.664Z,12.65
2023-02-22T08:48:15.334Z,12.75
2023-02-22T08:50:42.244Z,11.60
2023-02-22T08:53:10.195Z,13.10
2023-02-22T08:55:39.045Z,14.70
2023-02-22T08:58:09.244Z,11.82
2023-02-22T09:00:38.888Z,11.25
2023-02-22T09:03:08.299Z,13.07
2023-02-22T09:05:35.178Z,13.80
2023-02-22T09:08:02.046Z,14.85
2023-02-22T09:10:31.884Z,19.08
2023-02-22T09:13:00.840Z,15.52
2023-02-22T09:15:28.364Z,15.15
2023-02-22T09:17:55.791Z,14.05
2023-02-22T09:20:24.347Z,18.08
2023-02-22T09:22:51.492Z,18.17
2023-02-22T09:25:20.884Z,14.95
2023-02-22T09:27:52.577Z,17.02
2023-02-22T09:30:32.781Z,18.67
2023-02-22T09:33:11.870Z,19.67
2023-02-22T09:35:42.389Z,17.25
2023-02-22T09:38:10.349Z,15.90
2023-02-22T09:40:45.070Z,17.83
2023-02-22T09:43:20.934Z,19.00
2023-02-22T09:46:06.071Z,16.30
2023-02-22T09:48:51.444Z,16.33
2023-02-22T09:51:20.590Z,15.98
2023-02-22T09:53:50.703Z,15.07
2023-02-22T09:56:19.743Z,15.35
2023-02-22T09:58:52.731Z,16.42
2023-02-22T10:01:27.232Z,14.25
2023-02-22T10:04:19.164Z,15.18
2023-02-22T10:07:15.271Z,17.77
2023-02-22T10:09:43.697Z,21.20
2023-02-22T10:12:50.389Z,15.32
2023-02-22T10:15:44.714Z,14.90
2023-02-22T10:18:39.528Z,16.40
2023-02-22T10:21:31.141Z,15.63
2023-02-22T10:24:38.542Z,16.35
2023-02-22T10:27:09.492Z,16.45
2023-02-22T10:29:46.588Z,15.48
2023-02-22T10:32:25.979Z,13.43
2023-02-22T10:34:54.727Z,14.55
2023-02-22T10:37:25.457Z,16.88
2023-02-22T10:40:18.158Z,16.50
2023-02-22T10:42:45.087Z,14.88
2023-02-22T10:45:32.762Z,15.20
2023-02-22T10:48:03.526Z,15.40
2023-02-22T10:50:33.698Z,18.77
2023-02-22T10:53:00.482Z,16.35
2023-02-22T10:55:27.452Z,15.88
2023-02-22T10:58:04.700Z,15.90
2023-02-22T11:00:37.306Z,14.98
2023-02-22T11:03:18.224Z,21.70
2023-02-22T11:05:44.922Z,22.50
2023-02-22T11:08:33.058Z,15.95
2023-02-22T11:11:20.324Z,17.60
2023-02-22T11:13:57.497Z,19.02
2023-02-22T11:16:33.043Z,14.13
2023-02-22T11:19:02.885Z,14.60
2023-02-22T11:21:32.383Z,20.30
2023-02-22T11:24:11.311Z,19.00
2023-02-22T11:26:43.743Z,17.15
2023-02-22T11:29:34.052Z,14.45
2023-02-22T11:32:14.125Z,17.48
2023-02-22T11:34:45.216Z,21.05
2023-02-22T11:37:25.854Z,18.17
2023-02-22T11:40:24.979Z,15.93
2023-02-22T11:43:16.025Z,17.33
2023-02-22T11:46:05.506Z,19.40
2023-02-22T11:48:36.830Z,19.50
2023-02-22T11:51:16.516Z,17.52
2023-02-22T11:53:57.030Z,18.77
2023-02-22T11:56:49.162Z,21.42
2023-02-22T11:59:41.433Z,18.10
2023-02-22T12:02:24.288Z,21.63
2023-02-22T12:05:10.975Z,21.45
2023-02-22T12:08:05.306Z,21.15
2023-02-22T12:10:42.896Z,18.83
2023-02-22T12:13:26.182Z,17.58
2023-02-22T12:16:01.931Z,18.77
2023-02-22T12:18:54.959Z,19.10
2023-02-22T12:21:24.693Z,23.10
2023-02-22T12:23:55.044Z,20.15
2023-02-22T12:26:36.556Z,19.50
2023-02-22T12:29:26.156Z,19.70
2023-02-22T12:32:09.744Z,22.75
2023-02-22T12:34:43.582Z,18.60
2023-02-22T12:37:17.994Z,22.63
2023-02-22T12:39:53.966Z,18.60
2023-02-22T12:42:46.776Z,19.08
2023-02-22T12:45:27.110Z,17.48
2023-02-22T12:48:07.210Z,18.77
2023-02-22T12:50:36.536Z,23.42
2023-02-22T12:53:20.099Z,23.55
2023-02-22T12:56:00.206Z,19.58
2023-02-22T12:58:56.588Z,21.80
2023-02-22T13:01:30.002Z,18.83
2023-02-22T13:03:56.906Z,20.50
2023-02-22T13:06:29.653Z,20.58
2023-02-22T13:09:01.891Z,23.52
2023-02-22T13:12:02.724Z,21.23
2023-02-22T13:14:52.601Z,19.85
2023-02-22T13:17:26.770Z,19.13
2023-02-22T13:20:11.698Z,19.77
2023-02-22T13:25:21.831Z,19.23
2023-02-22T13:28:13.382Z,20.02
2023-02-22T13:31:15.297Z,21.30
2023-02-22T13:34:01.191Z,17.58
2023-02-22T13:36:38.406Z,20.45
2023-02-22T13:39:27.984Z,25.15
2023-02-22T13:42:20.448Z,21.50
2023-02-22T13:45:08.227Z,18.05
2023-02-22T13:48:05.153Z,19.77
2023-02-22T13:51:03.182Z,19.27
2023-02-22T13:53:37.346Z,17.08
2023-02-22T13:56:04.531Z,18.95
2023-02-22T13:58:31.403Z,18.35
2023-02-22T14:00:59.776Z,20.25
2023-02-22T14:03:36.583Z,19.77
2023-02-22T14:06:05.497Z,16.23
2023-02-22T14:08:33.692Z,18.30
2023-02-22T14:11:02.212Z,19.55
2023-02-22T14:13:30.504Z,22.17
2023-02-22T14:16:00.410Z,21.55
2023-02-22T14:18:42.089Z,18.17
2023-02-22T14:21:14.322Z,16.77
2023-02-22T14:23:43.268Z,16.67
2023-02-22T14:26:26.668Z,17.45
2023-02-22T14:29:08.618Z,16.20
2023-02-22T14:31:43.517Z,18.50
2023-02-22T14:34:12.072Z,20.05
2023-02-22T14:36:41.857Z,18.77
2023-02-22T14:39:21.816Z,20.98
2023-02-22T14:42:04.417Z,17.88
2023-02-22T14:44:39.573Z,17.23
2023-02-22T14:47:10.094Z,18.95
2023-02-22T14:49:41.921Z,17.40
2023-02-22T14:52:19.663Z,24.38
2023-02-22T14:55:04.450Z,24.80
2023-02-22T15:00:42.637Z,19.35
2023-02-22T15:03:32.941Z,21.65
2023-02-22T15:06:22.939Z,20.23
2023-02-22T15:09:23.534Z,20.05
2023-02-22T15:11:55.176Z,18.75
2023-02-22T15:14:26.709Z,18.20
2023-02-22T15:16:57.248Z,21.90
2023-02-22T15:19:37.223Z,16.20
2023-02-22T15:22:06.526Z,19.27
2023-02-22T15:24:36.214Z,20.27
2023-02-22T15:27:23.257Z,21.10
2023-02-22T15:29:56.578Z,30.05
2023-02-22T15:32:36.614Z,31.02
2023-02-22T15:35:29.560Z,19.67
2023-02-22T15:38:11.572Z,17.90
2023-02-22T15:40:42.956Z,19.33
2023-02-22T15:43:28.484Z,17.40
2023-02-22T15:45:56.670Z,15.75
2023-02-22T15:48:26.177Z,16.77
2023-02-22T15:51:10.630Z,18.73
2023-02-22T15:53:46.877Z,14.50
2023-02-22T15:56:23.816Z,20.75
2023-02-22T15:58:50.784Z,16.88
2023-02-22T16:01:19.949Z,16.00
2023-02-22T16:03:50.046Z,19.52
2023-02-22T16:06:35.174Z,18.95
2023-02-22T16:09:09.322Z,18.60
2023-02-22T16:11:43.801Z,19.67
2023-02-22T16:17:30.865Z,19.35
2023-02-22T16:19:59.903Z,16.83
2023-02-22T16:22:37.842Z,16.17
2023-02-22T16:25:19.685Z,19.05
2023-02-22T16:27:59.872Z,19.27
2023-02-22T16:30:32.418Z,21.08
2023-02-22T16:33:00.998Z,24.38
2023-02-22T16:35:29.495Z,29.65
2023-02-22T16:38:00.321Z,23.20
2023-02-22T16:40:39.816Z,26.20
2023-02-22T16:43:09.813Z,23.58
2023-02-22T16:45:36.500Z,20.95
2023-02-22T16:48:20.850Z,16.92
2023-02-22T16:50:53.055Z,21.67
2023-02-22T16:53:23.834Z,22.45
2023-02-22T16:55:57.561Z,19.23
2023-02-22T16:58:28.647Z,23.95
2023-02-22T17:00:57.397Z,24.92
2023-02-22T17:03:25.917Z,27.42
2023-02-22T17:05:53.096Z,25.98
2023-02-22T17:08:19.789Z,29.23
2023-02-22T17:10:46.530Z,27.15
2023-02-22T17:13:23.616Z,39.10
2023-02-22T17:15:51.957Z,33.22
2023-02-22T17:18:24.082Z,33.35
2023-02-22T17:20:52.464Z,29.30
2023-02-22T17:23:20.195Z,21.17
2023-02-22T17:26:02.335Z,21.38
2023-02-22T17:28:30.020Z,27.92
2023-02-22T17:31:02.442Z,20.20
2023-02-22T17:33:32.922Z,20.55
2023-02-22T17:36:02.662Z,24.02
2023-02-22T17:38:30.769Z,20.92
2023-02-22T17:40:59.322Z,21.02
2023-02-22T17:43:27.932Z,21.25
2023-02-22T17:45:55.137Z,19.98
2023-02-22T17:48:24.201Z,19.85
2023-02-22T17:50:51.962Z,23.35
2023-02-22T17:53:22.522Z,22.05
2023-02-22T17:55:49.715Z,26.30
2023-02-22T18:02:04.284Z,24.42
2023-02-22T18:04:34.741Z,19.00
2023-02-22T18:07:01.497Z,22.13
2023-02-22T18:09:28.145Z,20.60
2023-02-22T18:11:54.748Z,23.85
2023-02-22T18:14:21.461Z,25.13
2023-02-22T18:16:48.068Z,26.15
2023-02-22T18:19:20.441Z,25.38
2023-02-22T18:21:48.714Z,25.98
2023-02-22T18:24:15.379Z,21.50
2023-02-22T18:26:42.091Z,22.23
2023-02-22T18:29:12.285Z,23.77
2023-02-22T18:31:39.117Z,28.95
2023-02-22T18:34:05.873Z,30.70
2023-02-22T18:36:32.547Z,25.60
2023-02-22T18:38:59.256Z,22.40
2023-02-22T18:41:26.481Z,26.17
2023-02-22T18:43:55.666Z,23.67
2023-02-22T18:46:24.355Z,24.48
2023-02-22T18:48:54.271Z,28.05
2023-02-22T18:51:21.358Z,27.63
2023-02-22T18:53:49.844Z,26.02
2023-02-22T18:56:21.576Z,24.67
2023-02-22T18:58:53.230Z,28.77
2023-02-22T19:01:20.651Z,24.65
2023-02-22T19:03:47.392Z,27.05
2023-02-22T19:06:16.477Z,26.35
2023-02-22T19:08:45.071Z,25.63
2023-02-22T19:11:17.863Z,34.63
2023-02-22T19:13:48.988Z,30.02
2023-02-22T19:16:19.758Z,31.65
2023-02-22T19:18:47.658Z,29.80
2023-02-22T19:21:14.942Z,23.80
2023-02-22T19:23:46.134Z,34.67
2023-02-22T19:26:14.747Z,28.60
2023-02-22T19:28:41.432Z,24.95
2023-02-22T19:31:19.349Z,30.15
2023-02-22T19:33:48.036Z,27.30
2023-02-22T19:36:15.505Z,27.58
2023-02-22T19:38:42.566Z,26.58
2023-02-22T19:41:12.404Z,24.33
2023-02-22T19:43:39.457Z,25.83
2023-02-22T19:46:07.621Z,27.23
2023-02-22T19:48:34.580Z,25.17
2023-02-22T19:51:06.707Z,27.30
2023-02-22T19:53:34.642Z,25.90
2023-02-22T19:56:11.720Z,24.65
2023-02-22T19:58:40.686Z,30.30
2023-02-22T20:01:22.972Z,25.35
2023-02-22T20:03:54.295Z,27.40
2023-02-22T20:06:23.144Z,25.55
2023-02-22T20:08:51.155Z,28.25
2023-02-22T20:11:18.232Z,29.88
2023-02-22T20:13:45.388Z,34.70
2023-02-22T20:16:15.636Z,31.38
2023-02-22T20:18:43.875Z,30.48
2023-02-22T20:21:14.015Z,29.85
2023-02-22T20:23:44.189Z,26.00
2023-02-22T20:26:31.561Z,26.17
2023-02-22T20:28:59.581Z,23.60
2023-02-22T20:31:26.676Z,21.27
2023-02-22T20:33:55.710Z,20.85
2023-02-22T20:36:22.997Z,21.70
2023-02-22T20:38:54.325Z,22.67
2023-02-22T20:41:28.076Z,24.98
2023-02-22T20:43:56.214Z,20.60
2023-02-22T20:46:27.726Z,22.63
2023-02-22T20:48:55.944Z,23.40
2023-02-22T20:51:23.400Z,24.27
2023-02-22T20:53:50.246Z,23.67
2023-02-22T20:56:22.710Z,21.48
2023-02-22T20:58:49.620Z,25.70
2023-02-22T21:01:19.595Z,23.02
2023-02-22T21:03:46.836Z,24.55
2023-02-22T21:06:15.722Z,25.60
2023-02-22T21:08:43.691Z,21.75
2023-02-22T21:11:15.686Z,22.23
2023-02-22T21:13:42.460Z,21.00
2023-02-22T21:16:15.446Z,21.83
2023-02-22T21:18:42.129Z,20.88
2023-02-22T21:21:12.634Z,23.88
2023-02-22T21:23:42.893Z,22.73
2023-02-22T21:26:15.646Z,24.73
2023-02-22T21:28:50.845Z,24.23
2023-02-22T21:31:20.333Z,26.60
2023-02-22T21:33:50.464Z,25.30
2023-02-22T21:36:18.109Z,27.60
2023-02-22T21:38:53.357Z,27.58
2023-02-22T21:41:21.571Z,27.23
2023-02-22T21:43:52.151Z,24.02
2023-02-22T21:46:19.533Z,22.88
2023-02-22T21:48:48.910Z,21.50
2023-02-22T21:51:25.351Z,22.50
2023-02-22T21:53:54.522Z,24.70
2023-02-22T21:56:28.428Z,26.45
2023-02-22T21:59:00.135Z,26.58
2023-02-22T22:01:28.651Z,27.60
2023-02-22T22:03:56.418Z,24.73
2023-02-22T22:06:23.014Z,28.92
2023-02-22T22:08:50.401Z,27.30
2023-02-22T22:11:17.899Z,24.70
2023-02-22T22:13:44.808Z,24.23
2023-02-22T22:16:14.794Z,26.48
2023-02-22T22:18:43.124Z,26.98
2023-02-22T22:21:22.744Z,28.02
2023-02-22T22:23:50.741Z,27.63
2023-02-22T22:26:20.147Z,23.92
2023-02-22T22:28:56.088Z,24.23
2023-02-22T22:31:26.006Z,21.70
2023-02-22T22:33:53.992Z,24.52
2023-02-22T22:36:21.999Z,23.10
2023-02-22T22:38:49.492Z,20.33
2023-02-22T22:41:18.827Z,23.90
2023-02-22T22:43:48.743Z,20.73
2023-02-22T22:46:17.743Z,20.85
2023-02-22T22:48:46.751Z,20.10
2023-02-22T22:51:18.267Z,21.08
2023-02-22T22:53:46.933Z,23.92
2023-02-22T22:56:25.960Z,19.25
2023-02-22T22:58:57.571Z,18.27
2023-02-22T23:01:27.352Z,20.40
2023-02-22T23:03:59.286Z,22.23
2023-02-22T23:06:33.316Z,22.63
2023-02-22T23:09:00.068Z,21.98
2023-02-22T23:11:28.861Z,22.50
2023-02-22T23:13:56.478Z,20.10
2023-02-22T23:16:24.652Z,21.95
2023-02-22T23:18:51.506Z,22.60
2023-02-22T23:21:19.957Z,19.27
2023-02-22T23:23:51.520Z,22.70
2023-02-22T23:26:18.427Z,21.10
2023-02-22T23:28:47.730Z,19.08
2023-02-22T23:31:17.363Z,21.25
2023-02-22T23:33:48.108Z,20.33
2023-02-22T23:36:16.090Z,24.33
2023-02-22T23:38:43.521Z,22.60
2023-02-22T23:41:12.911Z,22.77
2023-02-22T23:43:40.758Z,22.75
2023-02-22T23:46:10.841Z,21.45
2023-02-22T23:48:47.026Z,22.13
2023-02-22T23:51:16.265Z,21.80
2023-02-22T23:53:46.002Z,24.05
2023-02-22T23:56:20.980Z,23.65
2023-02-22T23:58:52.357Z,23.42
